This is the latest recevied weather packets stored in our database for station/object IZ1UKX-13. If no packets are shown the sender has not sent any weather packets the latest 10 day(s).
| Time | Temp. | Humidity | Pressure | Rain* | Wind** | Luminosity | Snow |
|---|---|---|---|---|---|---|---|
| 1778256381 | 23.33° C | 56% | 1022.3 hPa | 0 mm | - | 0 W/m² | - |
| 1778256081 | 22.78° C | 57% | 1022.3 hPa | 0 mm | - | 0 W/m² | - |
| 1778255781 | 22.78° C | 57% | 1022.3 hPa | 0 mm | - | 0 W/m² | - |
| 1778255482 | 23.33° C | 56% | 1022.3 hPa | 0 mm | - | 0 W/m² | - |
| 1778255181 | 23.33° C | 56% | 1022.3 hPa | 0 mm | - | 0 W/m² | - |
| 1778254882 | 23.33° C | 57% | 1022.3 hPa | 0 mm | - | 0 W/m² | - |
| 1778254581 | 23.33° C | 57% | 1022.3 hPa | 0 mm | - | 0 W/m² | - |
| 1778254281 | 22.78° C | 57% | 1022.3 hPa | 0 mm | - | 0 W/m² | - |
| 1778253981 | 22.78° C | 58% | 1022.3 hPa | 0 mm | - | 0 W/m² | - |
| 1778253681 | 22.78° C | 58% | 1022.3 hPa | 0 mm | - | 0 W/m² | - |
| 1778253381 | 22.78° C | 59% | 1022.3 hPa | 0 mm | - | 0 W/m² | - |
| 1778253082 | 22.22° C | 60% | 1022.7 hPa | 0 mm | - | 0 W/m² | - |
| 1778252781 | 22.78° C | 58% | 1022.3 hPa | 0 mm | - | 0 W/m² | - |
| 1778252481 | 22.22° C | 61% | 1022.7 hPa | 0 mm | - | 0 W/m² | - |
| 1778252181 | 21.67° C | 62% | 1022.7 hPa | 0 mm | - | 0 W/m² | - |
| 1778251881 | 21.67° C | 61% | 1022.7 hPa | 0 mm | - | 0 W/m² | - |
| 1778251581 | 21.67° C | 62% | 1022.7 hPa | 0 mm | - | 0 W/m² | - |
| 1778251281 | 21.67° C | 64% | 1022.7 hPa | 0 mm | - | 0 W/m² | - |
| 1778250981 | 21.67° C | 62% | 1022.7 hPa | 0 mm | - | 0 W/m² | - |
| 1778250681 | 21.67° C | 62% | 1022.7 hPa | 0 mm | - | 0 W/m² | - |
| 1778250381 | 21.67° C | 64% | 1022.7 hPa | 0 mm | - | 0 W/m² | - |
| 1778250081 | 21.11° C | 63% | 1022.7 hPa | 0 mm | - | 0 W/m² | - |
| 1778249782 | 20° C | 67% | 1022.7 hPa | 0 mm | - | 0 W/m² | - |
| 1778249481 | 18.89° C | 70% | 1023.2 hPa | 0 mm | - | 0 W/m² | - |
| 1778249181 | 18.89° C | 70% | 1023.2 hPa | 0 mm | - | 0 W/m² | - |
* Rain latest hour (hover to see other rain measurements)
** Current wind speed in m/s (hover to see current wind gust speed)